createdAt,value
2022-11-18T00:01:16.042Z,7.40
2022-11-18T00:03:21.277Z,7.50
2022-11-18T00:05:27.001Z,7.50
2022-11-18T00:07:32.152Z,7.40
2022-11-18T00:09:37.530Z,7.70
2022-11-18T00:11:55.797Z,7.50
2022-11-18T00:14:13.629Z,7.70
2022-11-18T00:16:20.976Z,7.60
2022-11-18T00:18:26.344Z,7.70
2022-11-18T00:20:32.262Z,7.50
2022-11-18T00:22:37.674Z,7.70
2022-11-18T00:24:42.848Z,7.70
2022-11-18T00:26:48.080Z,7.80
2022-11-18T00:28:54.003Z,7.70
2022-11-18T00:31:05.453Z,7.70
2022-11-18T00:33:13.866Z,7.70
2022-11-18T00:35:19.301Z,7.80
2022-11-18T00:37:24.650Z,7.90
2022-11-18T00:39:30.418Z,8.00
2022-11-18T00:41:47.856Z,7.90
2022-11-18T00:43:53.226Z,7.70
2022-11-18T00:45:58.796Z,7.60
2022-11-18T00:48:03.767Z,7.70
2022-11-18T00:50:12.779Z,7.80
2022-11-18T00:52:20.754Z,7.80
2022-11-18T00:54:25.935Z,7.80
2022-11-18T00:56:31.257Z,7.90
2022-11-18T00:58:36.989Z,8.00
2022-11-18T01:00:42.302Z,8.00
2022-11-18T01:02:47.329Z,7.90
2022-11-18T01:04:52.337Z,8.10
2022-11-18T01:07:00.356Z,7.90
2022-11-18T01:09:05.470Z,7.90
2022-11-18T01:11:24.595Z,8.10
2022-11-18T01:13:31.507Z,8.10
2022-11-18T01:15:42.625Z,7.90
2022-11-18T01:17:47.693Z,7.80
2022-11-18T01:19:52.666Z,7.80
2022-11-18T01:22:03.059Z,8.10
2022-11-18T01:24:09.773Z,8.10
2022-11-18T01:26:17.515Z,8.10
2022-11-18T01:28:24.349Z,8.00
2022-11-18T01:30:29.888Z,7.90
2022-11-18T01:32:34.865Z,8.00
2022-11-18T01:34:40.396Z,7.90
2022-11-18T01:36:45.407Z,8.00
2022-11-18T01:38:54.729Z,7.90
2022-11-18T01:41:00.576Z,8.20
2022-11-18T01:43:06.427Z,8.00
2022-11-18T01:45:31.568Z,8.10
2022-11-18T01:47:43.554Z,8.20
2022-11-18T01:49:48.694Z,8.30
2022-11-18T01:51:58.752Z,8.30
2022-11-18T01:54:12.313Z,8.10
2022-11-18T01:56:21.495Z,8.10
2022-11-18T01:58:31.494Z,8.20
2022-11-18T02:00:37.475Z,8.20
2022-11-18T02:02:42.429Z,8.30
2022-11-18T02:04:52.704Z,8.30
2022-11-18T02:06:59.237Z,8.30
2022-11-18T02:09:08.144Z,8.30
2022-11-18T02:11:36.317Z,8.30
2022-11-18T02:13:41.351Z,8.10
2022-11-18T02:16:01.175Z,8.10
2022-11-18T02:18:15.630Z,8.20
2022-11-18T02:20:34.272Z,8.00
2022-11-18T02:23:04.886Z,7.90
2022-11-18T02:25:23.725Z,7.90
2022-11-18T02:28:09.873Z,7.90
2022-11-18T02:30:19.488Z,8.00
2022-11-18T02:32:32.369Z,7.90
2022-11-18T02:34:47.866Z,8.10
2022-11-18T02:37:01.936Z,8.20
2022-11-18T02:39:13.292Z,8.10
2022-11-18T02:41:22.863Z,8.20
2022-11-18T02:43:36.491Z,8.20
2022-11-18T02:45:49.076Z,8.10
2022-11-18T02:47:58.138Z,8.00
2022-11-18T02:50:09.169Z,8.10
2022-11-18T02:52:17.037Z,8.00
2022-11-18T02:54:25.487Z,7.80
2022-11-18T02:56:30.982Z,8.00
2022-11-18T02:58:36.376Z,7.90
2022-11-18T03:00:43.945Z,7.80
2022-11-18T03:02:51.337Z,7.80
2022-11-18T03:05:00.668Z,8.00
2022-11-18T03:07:15.956Z,8.00
2022-11-18T03:09:31.341Z,7.90
2022-11-18T03:11:43.002Z,8.10
2022-11-18T03:14:09.657Z,8.10
2022-11-18T03:16:24.077Z,8.10
2022-11-18T03:18:36.084Z,8.00
2022-11-18T03:20:48.769Z,7.90
2022-11-18T03:22:58.831Z,7.70
2022-11-18T03:25:11.683Z,8.00
2022-11-18T03:27:24.518Z,7.90
2022-11-18T03:29:35.889Z,8.00
2022-11-18T03:31:48.721Z,8.00
2022-11-18T03:34:01.575Z,7.90
2022-11-18T03:36:12.591Z,8.00
2022-11-18T03:38:22.228Z,8.10
2022-11-18T03:40:31.557Z,8.00
2022-11-18T03:42:44.001Z,8.10
2022-11-18T03:44:54.924Z,8.10
2022-11-18T03:47:09.144Z,8.10
2022-11-18T03:49:20.129Z,8.20
2022-11-18T03:51:29.139Z,8.20
2022-11-18T03:53:39.905Z,8.00
2022-11-18T03:55:50.648Z,8.20
2022-11-18T03:58:03.231Z,8.20
2022-11-18T04:00:12.819Z,8.00
2022-11-18T04:02:23.733Z,8.20
2022-11-18T04:04:30.557Z,8.20
2022-11-18T04:06:44.924Z,8.10
2022-11-18T04:08:56.456Z,8.10
2022-11-18T04:11:08.343Z,8.20
2022-11-18T04:13:20.330Z,8.10
2022-11-18T04:15:27.361Z,8.10
2022-11-18T04:17:35.602Z,8.30
2022-11-18T04:19:41.070Z,8.20
2022-11-18T04:21:46.766Z,8.30
2022-11-18T04:23:52.147Z,8.00
2022-11-18T04:25:58.927Z,7.90
2022-11-18T04:28:04.415Z,8.10
2022-11-18T04:30:12.025Z,8.20
2022-11-18T04:32:17.156Z,8.10
2022-11-18T04:34:25.469Z,8.10
2022-11-18T04:36:31.211Z,8.20
2022-11-18T04:38:36.186Z,8.20
2022-11-18T04:40:41.502Z,8.20
2022-11-18T04:42:46.469Z,8.30
2022-11-18T04:44:51.501Z,8.30
2022-11-18T04:46:57.862Z,8.30
2022-11-18T04:49:03.097Z,8.30
2022-11-18T04:51:10.760Z,8.20
2022-11-18T04:53:15.694Z,8.30
2022-11-18T04:55:21.499Z,8.20
2022-11-18T04:57:26.508Z,8.20
2022-11-18T04:59:32.888Z,8.20
2022-11-18T05:01:39.179Z,8.40
2022-11-18T05:03:49.323Z,8.40
2022-11-18T05:05:55.902Z,8.30
2022-11-18T05:08:03.482Z,8.50
2022-11-18T05:10:10.097Z,8.40
2022-11-18T05:12:29.468Z,8.50
2022-11-18T05:14:35.308Z,8.50
2022-11-18T05:16:40.464Z,8.50
2022-11-18T05:18:46.326Z,8.60
2022-11-18T05:20:51.362Z,8.60
2022-11-18T05:22:56.789Z,8.50
2022-11-18T05:25:04.714Z,8.40
2022-11-18T05:27:09.573Z,8.50
2022-11-18T05:29:15.789Z,8.40
2022-11-18T05:31:22.154Z,8.40
2022-11-18T05:33:27.536Z,8.40
2022-11-18T05:35:33.262Z,8.50
2022-11-18T05:37:38.288Z,8.40
2022-11-18T05:39:43.488Z,8.30
2022-11-18T05:42:04.146Z,8.50
2022-11-18T05:44:09.554Z,8.50
2022-11-18T05:46:14.985Z,8.40
2022-11-18T05:48:21.285Z,8.50
2022-11-18T05:50:26.349Z,8.30
2022-11-18T05:52:31.857Z,8.40
2022-11-18T05:54:36.840Z,8.50
2022-11-18T05:56:45.314Z,8.60
2022-11-18T05:58:53.209Z,8.50
2022-11-18T06:01:00.254Z,8.40
2022-11-18T06:03:12.341Z,8.50
2022-11-18T06:05:20.583Z,8.50
2022-11-18T06:07:30.663Z,8.40
2022-11-18T06:09:40.781Z,8.40
2022-11-18T06:11:53.844Z,8.50
2022-11-18T06:14:05.830Z,8.50
2022-11-18T06:16:11.782Z,8.50
2022-11-18T06:18:24.887Z,8.50
2022-11-18T06:20:30.613Z,8.70
2022-11-18T06:22:36.799Z,8.70
2022-11-18T06:24:44.450Z,8.50
2022-11-18T06:26:50.794Z,8.60
2022-11-18T06:28:56.985Z,8.50
2022-11-18T06:31:04.834Z,8.40
2022-11-18T06:33:09.778Z,8.70
2022-11-18T06:35:14.726Z,8.60
2022-11-18T06:37:23.241Z,8.50
2022-11-18T06:39:29.835Z,8.70
2022-11-18T06:41:35.183Z,8.50
2022-11-18T06:43:41.815Z,8.60
2022-11-18T06:46:09.403Z,8.70
2022-11-18T06:48:18.354Z,8.70
2022-11-18T06:50:23.336Z,8.60
2022-11-18T06:52:28.636Z,8.80
2022-11-18T06:54:33.586Z,8.80
2022-11-18T06:56:39.291Z,8.60
2022-11-18T06:58:44.989Z,8.70
2022-11-18T07:00:50.044Z,8.60
2022-11-18T07:02:55.272Z,8.60
2022-11-18T07:05:02.879Z,8.80
2022-11-18T07:07:08.037Z,8.90
2022-11-18T07:09:14.298Z,8.90
2022-11-18T07:11:22.067Z,8.70
2022-11-18T07:13:27.483Z,8.70
2022-11-18T07:15:32.818Z,8.70
2022-11-18T07:17:37.785Z,8.90
2022-11-18T07:19:42.944Z,8.70
2022-11-18T07:21:51.004Z,8.70
2022-11-18T07:23:56.766Z,8.70
2022-11-18T07:26:02.321Z,8.80
2022-11-18T07:28:07.714Z,9.00
2022-11-18T07:30:14.900Z,8.80
2022-11-18T07:32:19.906Z,8.80
2022-11-18T07:34:24.857Z,8.80
2022-11-18T07:36:35.601Z,8.90
2022-11-18T07:38:44.236Z,9.00
2022-11-18T07:40:49.184Z,8.90
2022-11-18T07:42:54.520Z,8.80
2022-11-18T07:45:02.299Z,8.90
2022-11-18T07:47:07.676Z,9.00
2022-11-18T07:49:14.845Z,9.00
2022-11-18T07:51:23.103Z,9.10
2022-11-18T07:53:28.080Z,9.00
2022-11-18T07:55:35.586Z,8.80
2022-11-18T07:57:41.194Z,8.90
2022-11-18T07:59:46.516Z,9.00
2022-11-18T08:01:51.889Z,9.10
2022-11-18T08:03:56.937Z,9.00
2022-11-18T08:06:02.645Z,9.10
2022-11-18T08:08:08.416Z,9.20
2022-11-18T08:10:13.644Z,9.20
2022-11-18T08:12:21.242Z,9.20
2022-11-18T08:14:26.708Z,9.10
2022-11-18T08:16:32.175Z,9.00
2022-11-18T08:18:37.510Z,9.10
2022-11-18T08:20:42.536Z,9.00
2022-11-18T08:22:47.533Z,9.00
2022-11-18T08:24:52.843Z,9.20
2022-11-18T08:26:57.872Z,9.30
2022-11-18T08:29:06.056Z,9.10
2022-11-18T08:31:15.730Z,9.20
2022-11-18T08:33:21.126Z,9.10
2022-11-18T08:35:26.053Z,9.10
2022-11-18T08:37:31.460Z,9.10
2022-11-18T08:39:36.985Z,9.10
2022-11-18T08:41:47.095Z,9.10
2022-11-18T08:43:52.357Z,9.40
2022-11-18T08:46:00.722Z,9.30
2022-11-18T08:48:05.712Z,9.40
2022-11-18T08:50:14.503Z,9.40
2022-11-18T08:52:19.549Z,9.40
2022-11-18T08:54:24.906Z,9.50
2022-11-18T08:56:29.897Z,9.50
2022-11-18T08:58:35.569Z,9.40
2022-11-18T09:00:41.164Z,9.70
2022-11-18T09:02:49.120Z,9.70
2022-11-18T09:04:56.217Z,9.70
2022-11-18T09:07:01.611Z,9.80
2022-11-18T09:09:06.851Z,9.70
2022-11-18T09:11:14.396Z,9.80
2022-11-18T09:13:47.544Z,10.00
2022-11-18T09:15:45.107Z,9.90
2022-11-18T09:17:53.397Z,9.80
2022-11-18T09:19:58.327Z,9.80
2022-11-18T09:22:03.557Z,9.90
2022-11-18T09:24:11.586Z,10.00
2022-11-18T09:26:19.221Z,9.90
2022-11-18T09:28:27.643Z,10.10
2022-11-18T09:30:32.546Z,10.00
2022-11-18T09:32:37.980Z,10.10
2022-11-18T09:34:45.984Z,10.00
2022-11-18T09:36:51.422Z,9.90
2022-11-18T09:38:56.732Z,9.90
2022-11-18T09:41:10.808Z,9.90
2022-11-18T09:43:25.231Z,10.00
2022-11-18T09:45:40.560Z,10.10
2022-11-18T09:47:46.026Z,10.00
2022-11-18T09:49:54.577Z,9.90
2022-11-18T09:52:04.957Z,10.10
2022-11-18T09:54:16.280Z,10.10
2022-11-18T09:56:21.883Z,10.00
2022-11-18T09:58:35.594Z,10.20
2022-11-18T10:00:46.294Z,10.00
2022-11-18T10:03:03.283Z,10.00
2022-11-18T10:05:20.814Z,10.00
2022-11-18T10:07:33.514Z,9.90
2022-11-18T10:09:43.058Z,10.00
2022-11-18T10:12:03.716Z,10.00
2022-11-18T10:14:31.366Z,10.10
2022-11-18T10:16:50.871Z,10.00
2022-11-18T10:19:08.144Z,10.20
2022-11-18T10:21:26.429Z,10.30
2022-11-18T10:23:37.488Z,10.20
2022-11-18T10:25:42.514Z,10.40
2022-11-18T10:27:49.780Z,10.20
2022-11-18T10:29:59.753Z,10.40
2022-11-18T10:32:07.162Z,10.50
2022-11-18T10:34:16.895Z,10.40
2022-11-18T10:36:33.215Z,10.50
2022-11-18T10:38:38.555Z,10.40
2022-11-18T10:40:59.454Z,10.60
2022-11-18T10:43:04.501Z,10.50
2022-11-18T10:45:20.283Z,10.70
2022-11-18T10:47:30.148Z,10.50
2022-11-18T10:49:41.990Z,10.70
2022-11-18T10:52:01.500Z,10.70
2022-11-18T10:54:12.787Z,10.70
2022-11-18T10:56:18.632Z,10.70
2022-11-18T10:58:24.324Z,10.70
2022-11-18T11:00:42.898Z,10.60
2022-11-18T11:02:47.935Z,10.80
2022-11-18T11:04:54.944Z,10.80
2022-11-18T11:07:26.668Z,10.60
2022-11-18T11:09:33.076Z,10.70
2022-11-18T11:11:43.387Z,10.80
2022-11-18T11:13:51.461Z,10.80
2022-11-18T11:16:02.016Z,10.80
2022-11-18T11:18:27.142Z,10.60
2022-11-18T11:20:32.613Z,10.70
2022-11-18T11:22:40.186Z,10.70
2022-11-18T11:24:46.062Z,10.70
2022-11-18T11:30:08.673Z,10.70
2022-11-18T11:32:23.254Z,10.80
2022-11-18T11:34:38.009Z,10.80
2022-11-18T11:36:53.510Z,11.00
2022-11-18T11:39:23.268Z,10.70
2022-11-18T11:41:32.845Z,10.70
2022-11-18T11:43:50.255Z,10.80
2022-11-18T11:46:22.484Z,10.60
2022-11-18T11:48:45.316Z,10.80
2022-11-18T11:51:04.242Z,10.80
2022-11-18T11:53:44.428Z,10.80
2022-11-18T11:56:02.046Z,10.60
2022-11-18T11:58:16.684Z,10.50
2022-11-18T12:00:23.576Z,10.50
2022-11-18T12:02:53.212Z,10.60
2022-11-18T12:05:05.111Z,10.60
2022-11-18T12:07:18.673Z,10.50
2022-11-18T12:09:39.669Z,10.60
2022-11-18T12:11:56.057Z,10.60
2022-11-18T12:14:08.019Z,10.50
2022-11-18T12:16:29.762Z,10.50
2022-11-18T12:18:43.085Z,10.50
2022-11-18T12:20:50.318Z,10.40
2022-11-18T12:23:14.423Z,10.40
2022-11-18T12:25:54.692Z,10.50
2022-11-18T12:28:03.365Z,10.60
2022-11-18T12:30:21.791Z,10.40
2022-11-18T12:32:42.602Z,10.40
2022-11-18T12:34:48.170Z,10.40
2022-11-18T12:36:53.463Z,10.40
2022-11-18T12:39:00.274Z,10.50
2022-11-18T12:41:26.303Z,10.40
2022-11-18T12:44:10.845Z,10.30
2022-11-18T12:47:03.957Z,10.30
2022-11-18T12:50:03.022Z,10.30
2022-11-18T12:52:32.440Z,10.30
2022-11-18T12:54:41.439Z,10.20
2022-11-18T12:56:51.003Z,10.20
2022-11-18T12:58:58.358Z,10.20
2022-11-18T13:01:10.543Z,10.20
2022-11-18T13:03:31.022Z,10.30
2022-11-18T13:05:38.690Z,10.40
2022-11-18T13:08:02.685Z,10.30
2022-11-18T13:10:25.912Z,10.30
2022-11-18T13:12:32.848Z,10.30
2022-11-18T13:14:55.140Z,10.30
2022-11-18T13:17:12.833Z,10.20
2022-11-18T13:19:27.726Z,10.20
2022-11-18T13:21:45.646Z,10.20
2022-11-18T13:24:00.650Z,10.20
2022-11-18T13:26:09.726Z,10.20
2022-11-18T13:28:30.174Z,10.20
2022-11-18T13:30:39.747Z,10.30
2022-11-18T13:32:48.118Z,10.20
2022-11-18T13:34:59.000Z,10.20
2022-11-18T13:37:04.274Z,10.20
2022-11-18T13:39:15.858Z,10.20
2022-11-18T13:41:32.577Z,10.20
2022-11-18T13:43:38.638Z,10.20
2022-11-18T13:45:44.045Z,10.20
2022-11-18T13:47:53.829Z,10.20
2022-11-18T13:50:14.863Z,10.10
2022-11-18T13:52:26.750Z,10.20
2022-11-18T13:54:32.652Z,10.10
2022-11-18T13:56:38.741Z,10.10
2022-11-18T14:01:21.284Z,10.10
2022-11-18T14:03:32.618Z,10.10
2022-11-18T14:05:42.867Z,10.30
2022-11-18T14:08:05.061Z,10.30
2022-11-18T14:10:17.546Z,10.30
2022-11-18T14:12:28.949Z,10.10
2022-11-18T14:14:36.481Z,10.20
2022-11-18T14:16:43.643Z,10.20
2022-11-18T14:18:51.677Z,9.90
2022-11-18T14:20:59.865Z,10.20
2022-11-18T14:23:10.568Z,10.00
2022-11-18T14:25:22.931Z,10.20
2022-11-18T14:27:41.304Z,10.20
2022-11-18T14:29:52.718Z,10.20
2022-11-18T14:32:16.949Z,10.00
2022-11-18T14:34:27.436Z,9.90
2022-11-18T14:36:35.166Z,9.70
2022-11-18T14:39:25.391Z,9.90
2022-11-18T14:41:41.054Z,10.00
2022-11-18T14:43:48.892Z,9.80
2022-11-18T14:45:55.907Z,9.80
2022-11-18T14:48:01.217Z,9.70
2022-11-18T14:50:06.623Z,9.60
2022-11-18T14:52:15.226Z,9.50
2022-11-18T14:54:26.449Z,9.70
2022-11-18T14:56:34.595Z,9.60
2022-11-18T14:58:39.697Z,9.50
2022-11-18T15:00:45.860Z,9.60
2022-11-18T15:02:51.010Z,9.60
2022-11-18T15:04:57.945Z,9.40
2022-11-18T15:07:03.054Z,9.50
2022-11-18T15:09:12.100Z,9.50
2022-11-18T15:11:19.260Z,9.30
2022-11-18T15:13:24.301Z,9.30
2022-11-18T15:15:30.304Z,9.30
2022-11-18T15:17:35.888Z,9.50
2022-11-18T15:19:41.799Z,9.30
2022-11-18T15:21:46.920Z,8.90
2022-11-18T15:23:52.159Z,9.00
2022-11-18T15:26:01.334Z,9.10
2022-11-18T15:28:06.810Z,9.20
2022-11-18T15:30:16.133Z,9.00
2022-11-18T15:32:21.101Z,8.90
2022-11-18T15:34:26.361Z,9.00
2022-11-18T15:36:31.340Z,8.70
2022-11-18T15:38:36.431Z,8.70
2022-11-18T15:40:41.420Z,8.70
2022-11-18T15:42:52.200Z,8.70
2022-11-18T15:44:57.389Z,8.60
2022-11-18T15:47:02.765Z,8.50
2022-11-18T15:49:09.838Z,8.50
2022-11-18T15:51:15.457Z,8.50
2022-11-18T15:53:20.568Z,8.60
2022-11-18T15:55:25.820Z,8.60
2022-11-18T15:57:30.769Z,8.60
2022-11-18T15:59:38.295Z,8.60
2022-11-18T16:01:45.800Z,8.60
2022-11-18T16:03:51.354Z,8.50
2022-11-18T16:05:56.304Z,8.60
2022-11-18T16:08:01.391Z,8.40
2022-11-18T16:10:19.540Z,8.40
2022-11-18T16:12:37.069Z,8.50
2022-11-18T16:15:04.587Z,8.20
2022-11-18T16:17:09.597Z,8.30
2022-11-18T16:19:17.079Z,8.40
2022-11-18T16:21:22.033Z,8.10
2022-11-18T16:23:27.346Z,8.00
2022-11-18T16:25:35.208Z,8.00
2022-11-18T16:27:40.429Z,8.10
2022-11-18T16:29:48.141Z,8.00
2022-11-18T16:31:52.405Z,8.00
2022-11-18T16:33:57.666Z,8.00
2022-11-18T16:36:02.917Z,7.60
2022-11-18T16:38:11.232Z,7.60
2022-11-18T16:40:16.467Z,7.50
2022-11-18T16:42:21.433Z,7.50
2022-11-18T16:44:26.625Z,7.30
2022-11-18T16:46:36.495Z,7.00
2022-11-18T16:48:41.625Z,7.00
2022-11-18T16:50:46.757Z,6.90
2022-11-18T16:52:51.846Z,6.90
2022-11-18T16:54:56.774Z,6.80
2022-11-18T16:57:02.704Z,6.50
2022-11-18T16:59:10.586Z,6.30
2022-11-18T17:01:20.883Z,6.30
2022-11-18T17:03:30.023Z,6.40
2022-11-18T17:05:36.895Z,6.30
2022-11-18T17:07:42.011Z,6.30
2022-11-18T17:09:47.047Z,6.40
2022-11-18T17:11:58.532Z,6.50
2022-11-18T17:14:03.650Z,6.60
2022-11-18T17:16:11.092Z,6.30
2022-11-18T17:18:16.037Z,6.30
2022-11-18T17:20:23.556Z,6.30
2022-11-18T17:22:28.956Z,6.10
2022-11-18T17:24:34.711Z,6.10
2022-11-18T17:26:39.683Z,6.30
2022-11-18T17:28:45.866Z,6.10
2022-11-18T17:30:51.026Z,6.20
2022-11-18T17:32:56.029Z,6.20
2022-11-18T17:35:00.963Z,6.30
2022-11-18T17:37:08.616Z,6.30
2022-11-18T17:39:16.012Z,6.20
2022-11-18T17:41:36.444Z,5.90
2022-11-18T17:43:41.339Z,5.90
2022-11-18T17:45:46.417Z,5.90
2022-11-18T17:47:51.595Z,5.80
2022-11-18T17:49:56.671Z,5.80
2022-11-18T17:52:01.626Z,5.80
2022-11-18T17:54:10.684Z,5.60
2022-11-18T17:56:15.648Z,5.70
2022-11-18T17:58:20.638Z,5.60
2022-11-18T18:00:26.437Z,5.50
2022-11-18T18:02:31.424Z,5.50
2022-11-18T18:04:36.973Z,5.50
2022-11-18T18:06:43.064Z,5.40
2022-11-18T18:08:48.151Z,5.30
2022-11-18T18:10:55.688Z,5.30
2022-11-18T18:13:13.140Z,5.20
2022-11-18T18:15:18.751Z,5.30
2022-11-18T18:17:23.724Z,5.20
2022-11-18T18:19:28.697Z,5.20
2022-11-18T18:21:35.702Z,5.10
2022-11-18T18:23:40.752Z,5.20
2022-11-18T18:25:48.655Z,5.00
2022-11-18T18:27:56.212Z,5.10
2022-11-18T18:30:01.693Z,5.00
2022-11-18T18:32:07.449Z,5.00
2022-11-18T18:34:12.439Z,4.90
2022-11-18T18:36:20.225Z,5.00
2022-11-18T18:38:25.147Z,4.90
2022-11-18T18:40:30.759Z,4.90
2022-11-18T18:42:36.140Z,4.90
2022-11-18T18:44:56.221Z,5.10
2022-11-18T18:47:01.525Z,5.00
2022-11-18T18:49:09.368Z,5.00
2022-11-18T18:51:14.680Z,4.80
2022-11-18T18:53:19.646Z,4.80
2022-11-18T18:55:24.968Z,4.80
2022-11-18T18:57:31.240Z,4.90
2022-11-18T18:59:36.629Z,4.90
2022-11-18T19:01:44.475Z,4.90
2022-11-18T19:03:50.799Z,4.80
2022-11-18T19:06:27.286Z,4.80
2022-11-18T19:08:21.137Z,4.90
2022-11-18T19:10:26.987Z,4.50
2022-11-18T19:12:45.816Z,4.60
2022-11-18T19:14:51.245Z,4.60
2022-11-18T19:17:02.482Z,4.40
2022-11-18T19:19:16.013Z,4.50
2022-11-18T19:21:18.769Z,4.40
2022-11-18T19:23:25.192Z,4.30
2022-11-18T19:25:30.555Z,4.20
2022-11-18T19:27:39.190Z,4.30
2022-11-18T19:29:44.766Z,4.20
2022-11-18T19:31:49.755Z,4.20
2022-11-18T19:33:57.497Z,4.20
2022-11-18T19:36:04.991Z,4.00
2022-11-18T19:38:11.226Z,4.00
2022-11-18T19:40:17.420Z,3.90
2022-11-18T19:42:22.831Z,3.80
2022-11-18T19:44:27.809Z,3.70
2022-11-18T19:46:33.126Z,3.70
2022-11-18T19:48:38.510Z,3.60
2022-11-18T19:50:46.586Z,3.60
2022-11-18T19:52:51.551Z,3.70
2022-11-18T19:54:58.369Z,3.70
2022-11-18T19:57:03.990Z,3.70
2022-11-18T19:59:09.783Z,3.70
2022-11-18T20:01:19.350Z,3.60
2022-11-18T20:03:24.554Z,3.50
2022-11-18T20:05:47.150Z,3.40
2022-11-18T20:07:57.815Z,3.50
2022-11-18T20:10:02.720Z,3.50
2022-11-18T20:12:10.063Z,3.50
2022-11-18T20:14:16.136Z,3.30
2022-11-18T20:16:23.667Z,3.40
2022-11-18T20:18:28.935Z,3.40
2022-11-18T20:20:33.973Z,3.30
2022-11-18T20:22:38.948Z,3.20
2022-11-18T20:24:46.569Z,3.50
2022-11-18T20:26:51.585Z,3.40
2022-11-18T20:28:57.865Z,3.30
2022-11-18T20:31:03.790Z,3.40
2022-11-18T20:33:08.702Z,3.30
2022-11-18T20:35:14.474Z,3.40
2022-11-18T20:37:21.521Z,3.50
2022-11-18T20:39:30.956Z,3.50
2022-11-18T20:41:39.203Z,3.40
2022-11-18T20:43:43.808Z,3.30
2022-11-18T20:45:56.284Z,3.20
2022-11-18T20:48:02.348Z,3.10
2022-11-18T20:50:09.084Z,3.20
2022-11-18T20:52:14.085Z,3.20
2022-11-18T20:54:19.561Z,3.10
2022-11-18T20:56:28.144Z,3.10
2022-11-18T20:58:36.977Z,3.20
2022-11-18T21:00:42.074Z,3.20
2022-11-18T21:02:47.747Z,3.10
2022-11-18T21:04:52.751Z,3.00
2022-11-18T21:07:01.896Z,3.10
2022-11-18T21:09:09.602Z,3.10
2022-11-18T21:11:16.423Z,3.00
2022-11-18T21:13:34.173Z,3.00
2022-11-18T21:15:41.555Z,2.90
2022-11-18T21:17:46.707Z,2.90
2022-11-18T21:19:51.902Z,3.00
2022-11-18T21:21:55.812Z,3.00
2022-11-18T21:24:04.032Z,3.00
2022-11-18T21:26:13.269Z,3.00
2022-11-18T21:28:18.908Z,3.00
2022-11-18T21:30:24.005Z,2.90
2022-11-18T21:32:31.915Z,2.70
2022-11-18T21:34:37.481Z,2.90
2022-11-18T21:36:46.912Z,2.70
2022-11-18T21:38:54.708Z,2.70
2022-11-18T21:41:06.388Z,2.60
2022-11-18T21:43:12.033Z,2.60
2022-11-18T21:45:18.226Z,2.50
2022-11-18T21:47:23.713Z,2.50
2022-11-18T21:49:31.718Z,2.40
2022-11-18T21:51:37.925Z,2.50
2022-11-18T21:53:44.005Z,2.40
2022-11-18T21:55:49.219Z,2.40
2022-11-18T21:57:58.650Z,2.40
2022-11-18T22:00:07.829Z,2.40
2022-11-18T22:02:17.271Z,2.40
2022-11-18T22:04:34.639Z,2.40
2022-11-18T22:06:42.522Z,2.40
2022-11-18T22:08:48.023Z,2.40
2022-11-18T22:10:53.415Z,2.20
2022-11-18T22:13:02.046Z,2.40
2022-11-18T22:15:11.292Z,2.50
2022-11-18T22:17:16.554Z,2.30
2022-11-18T22:19:22.468Z,2.40
2022-11-18T22:21:28.129Z,2.50
2022-11-18T22:23:37.260Z,2.30
2022-11-18T22:25:43.386Z,2.30
2022-11-18T22:27:48.684Z,2.20
2022-11-18T22:29:55.259Z,2.30
2022-11-18T22:32:00.816Z,2.20
2022-11-18T22:34:07.420Z,2.30
2022-11-18T22:36:17.724Z,2.20
2022-11-18T22:38:22.824Z,2.10
2022-11-18T22:40:30.765Z,2.00
2022-11-18T22:42:48.475Z,1.90
2022-11-18T22:44:53.847Z,2.10
2022-11-18T22:46:59.553Z,1.80
2022-11-18T22:49:04.993Z,1.70
2022-11-18T22:51:10.083Z,1.70
2022-11-18T22:53:15.891Z,1.80
2022-11-18T22:55:22.196Z,1.70
2022-11-18T22:57:34.970Z,1.70
2022-11-18T22:59:40.489Z,1.60
2022-11-18T23:01:45.697Z,1.80
2022-11-18T23:03:51.510Z,1.80
2022-11-18T23:06:00.268Z,1.80
2022-11-18T23:08:05.368Z,1.60
2022-11-18T23:10:12.258Z,1.90
2022-11-18T23:12:30.268Z,1.90
2022-11-18T23:14:37.778Z,1.90
2022-11-18T23:16:45.248Z,1.90
2022-11-18T23:18:51.196Z,1.80
2022-11-18T23:21:01.891Z,1.80
2022-11-18T23:23:07.437Z,1.80
2022-11-18T23:25:12.846Z,1.80
2022-11-18T23:27:18.253Z,1.80
2022-11-18T23:29:25.228Z,1.80
2022-11-18T23:31:33.533Z,1.70
2022-11-18T23:36:46.461Z,1.70
2022-11-18T23:38:51.971Z,1.80
2022-11-18T23:40:58.666Z,1.70
2022-11-18T23:43:04.292Z,1.80
2022-11-18T23:45:11.598Z,1.70
2022-11-18T23:47:19.643Z,1.60
2022-11-18T23:49:24.827Z,1.60
2022-11-18T23:51:30.121Z,1.70
2022-11-18T23:53:37.029Z,1.60
2022-11-18T23:55:42.096Z,1.60
2022-11-18T23:57:47.845Z,1.50
2022-11-18T23:59:52.961Z,1.50
